sensor_id;sensor_type;location;lat;lon;timestamp;P1;durP1;ratioP1;P2;durP2;ratioP2
36291;SDS011;22327;51.208;6.418;2023-08-08T00:02:55;6.28;;;4.00;;
36291;SDS011;22327;51.208;6.418;2023-08-08T00:05:56;2.30;;;1.80;;
36291;SDS011;22327;51.208;6.418;2023-08-08T00:08:56;4.82;;;2.30;;
36291;SDS011;22327;51.208;6.418;2023-08-08T00:11:56;3.67;;;2.13;;
36291;SDS011;22327;51.208;6.418;2023-08-08T00:14:57;3.28;;;2.10;;
36291;SDS011;22327;51.208;6.418;2023-08-08T00:17:58;5.15;;;2.00;;
36291;SDS011;22327;51.208;6.418;2023-08-08T00:20:58;4.28;;;2.10;;
36291;SDS011;22327;51.208;6.418;2023-08-08T00:23:59;3.00;;;2.15;;
36291;SDS011;22327;51.208;6.418;2023-08-08T00:26:59;6.63;;;2.20;;
36291;SDS011;22327;51.208;6.418;2023-08-08T00:30:00;3.05;;;2.60;;
36291;SDS011;22327;51.208;6.418;2023-08-08T00:33:01;3.15;;;2.20;;
36291;SDS011;22327;51.208;6.418;2023-08-08T00:36:01;2.72;;;2.38;;
36291;SDS011;22327;51.208;6.418;2023-08-08T00:39:02;5.35;;;2.70;;
36291;SDS011;22327;51.208;6.418;2023-08-08T00:42:02;4.32;;;2.60;;
36291;SDS011;22327;51.208;6.418;2023-08-08T00:45:03;2.72;;;2.35;;
36291;SDS011;22327;51.208;6.418;2023-08-08T00:48:04;3.95;;;2.13;;
36291;SDS011;22327;51.208;6.418;2023-08-08T00:51:05;3.22;;;2.50;;
36291;SDS011;22327;51.208;6.418;2023-08-08T00:54:06;2.70;;;2.35;;
36291;SDS011;22327;51.208;6.418;2023-08-08T00:57:07;4.15;;;2.53;;
36291;SDS011;22327;51.208;6.418;2023-08-08T01:00:08;5.22;;;2.35;;
36291;SDS011;22327;51.208;6.418;2023-08-08T01:03:10;2.72;;;1.95;;
36291;SDS011;22327;51.208;6.418;2023-08-08T01:06:13;5.13;;;2.53;;
36291;SDS011;22327;51.208;6.418;2023-08-08T01:09:30;3.45;;;2.40;;
36291;SDS011;22327;51.208;6.418;2023-08-08T01:12:52;4.30;;;2.33;;
36291;SDS011;22327;51.208;6.418;2023-08-08T01:15:55;9.57;;;2.70;;
36291;SDS011;22327;51.208;6.418;2023-08-08T01:18:57;3.47;;;2.30;;
36291;SDS011;22327;51.208;6.418;2023-08-08T01:22:01;5.43;;;2.60;;
36291;SDS011;22327;51.208;6.418;2023-08-08T01:25:03;6.70;;;2.78;;
36291;SDS011;22327;51.208;6.418;2023-08-08T01:28:05;2.95;;;2.60;;
36291;SDS011;22327;51.208;6.418;2023-08-08T01:31:06;3.58;;;2.13;;
36291;SDS011;22327;51.208;6.418;2023-08-08T01:34:06;5.65;;;2.30;;
36291;SDS011;22327;51.208;6.418;2023-08-08T01:37:15;3.90;;;2.53;;
36291;SDS011;22327;51.208;6.418;2023-08-08T01:40:19;4.90;;;2.55;;
36291;SDS011;22327;51.208;6.418;2023-08-08T01:43:21;2.88;;;2.20;;
36291;SDS011;22327;51.208;6.418;2023-08-08T01:46:23;3.33;;;2.05;;
36291;SDS011;22327;51.208;6.418;2023-08-08T01:49:25;3.00;;;2.58;;
36291;SDS011;22327;51.208;6.418;2023-08-08T01:52:25;6.05;;;2.60;;
36291;SDS011;22327;51.208;6.418;2023-08-08T01:55:26;3.97;;;2.10;;
36291;SDS011;22327;51.208;6.418;2023-08-08T01:58:27;2.95;;;2.28;;
36291;SDS011;22327;51.208;6.418;2023-08-08T02:01:27;3.70;;;2.30;;
36291;SDS011;22327;51.208;6.418;2023-08-08T02:04:28;4.32;;;2.10;;
36291;SDS011;22327;51.208;6.418;2023-08-08T02:07:28;3.03;;;1.92;;
36291;SDS011;22327;51.208;6.418;2023-08-08T02:10:29;2.75;;;2.00;;
36291;SDS011;22327;51.208;6.418;2023-08-08T02:13:29;4.32;;;2.17;;
36291;SDS011;22327;51.208;6.418;2023-08-08T02:16:30;5.32;;;2.10;;
36291;SDS011;22327;51.208;6.418;2023-08-08T02:19:31;3.85;;;2.47;;
36291;SDS011;22327;51.208;6.418;2023-08-08T02:22:31;3.58;;;2.10;;
36291;SDS011;22327;51.208;6.418;2023-08-08T02:25:32;6.15;;;2.92;;
36291;SDS011;22327;51.208;6.418;2023-08-08T02:28:33;3.15;;;1.80;;
36291;SDS011;22327;51.208;6.418;2023-08-08T02:31:33;3.22;;;2.63;;
36291;SDS011;22327;51.208;6.418;2023-08-08T02:34:34;7.07;;;2.38;;
36291;SDS011;22327;51.208;6.418;2023-08-08T02:37:34;3.67;;;2.00;;
36291;SDS011;22327;51.208;6.418;2023-08-08T02:40:35;4.63;;;2.25;;
36291;SDS011;22327;51.208;6.418;2023-08-08T02:43:35;5.18;;;2.22;;
36291;SDS011;22327;51.208;6.418;2023-08-08T02:46:36;3.65;;;2.00;;
36291;SDS011;22327;51.208;6.418;2023-08-08T02:49:37;4.32;;;1.92;;
36291;SDS011;22327;51.208;6.418;2023-08-08T02:52:38;4.50;;;2.15;;
36291;SDS011;22327;51.208;6.418;2023-08-08T02:55:39;3.53;;;1.90;;
36291;SDS011;22327;51.208;6.418;2023-08-08T02:58:39;5.07;;;2.20;;
36291;SDS011;22327;51.208;6.418;2023-08-08T03:01:40;3.05;;;2.08;;
36291;SDS011;22327;51.208;6.418;2023-08-08T03:04:40;3.42;;;2.20;;
36291;SDS011;22327;51.208;6.418;2023-08-08T03:07:41;5.28;;;2.30;;
36291;SDS011;22327;51.208;6.418;2023-08-08T03:10:41;6.18;;;2.20;;
36291;SDS011;22327;51.208;6.418;2023-08-08T03:13:42;5.40;;;2.03;;
36291;SDS011;22327;51.208;6.418;2023-08-08T03:16:42;6.97;;;2.55;;
36291;SDS011;22327;51.208;6.418;2023-08-08T03:19:43;7.63;;;2.40;;
36291;SDS011;22327;51.208;6.418;2023-08-08T03:22:44;5.70;;;2.30;;
36291;SDS011;22327;51.208;6.418;2023-08-08T03:25:44;5.60;;;2.30;;
36291;SDS011;22327;51.208;6.418;2023-08-08T03:28:45;5.53;;;2.55;;
36291;SDS011;22327;51.208;6.418;2023-08-08T03:31:50;5.70;;;2.78;;
36291;SDS011;22327;51.208;6.418;2023-08-08T03:34:50;4.70;;;2.25;;
36291;SDS011;22327;51.208;6.418;2023-08-08T03:37:51;4.45;;;2.35;;
36291;SDS011;22327;51.208;6.418;2023-08-08T03:40:51;6.25;;;2.75;;
36291;SDS011;22327;51.208;6.418;2023-08-08T03:43:52;9.57;;;2.90;;
36291;SDS011;22327;51.208;6.418;2023-08-08T03:46:52;4.43;;;2.50;;
36291;SDS011;22327;51.208;6.418;2023-08-08T03:49:54;6.20;;;2.80;;
36291;SDS011;22327;51.208;6.418;2023-08-08T03:55:57;5.40;;;2.60;;
36291;SDS011;22327;51.208;6.418;2023-08-08T03:58:58;7.90;;;2.80;;
36291;SDS011;22327;51.208;6.418;2023-08-08T04:01:58;5.20;;;2.38;;
36291;SDS011;22327;51.208;6.418;2023-08-08T04:04:59;5.03;;;2.78;;
36291;SDS011;22327;51.208;6.418;2023-08-08T04:07:59;6.63;;;2.75;;
36291;SDS011;22327;51.208;6.418;2023-08-08T04:11:00;20.05;;;4.70;;
36291;SDS011;22327;51.208;6.418;2023-08-08T04:14:01;7.05;;;3.00;;
36291;SDS011;22327;51.208;6.418;2023-08-08T04:17:02;9.88;;;3.72;;
36291;SDS011;22327;51.208;6.418;2023-08-08T04:20:03;6.57;;;3.28;;
36291;SDS011;22327;51.208;6.418;2023-08-08T04:23:06;6.22;;;2.60;;
36291;SDS011;22327;51.208;6.418;2023-08-08T04:26:06;8.20;;;2.80;;
36291;SDS011;22327;51.208;6.418;2023-08-08T04:29:07;6.93;;;2.65;;
36291;SDS011;22327;51.208;6.418;2023-08-08T04:32:07;9.73;;;3.00;;
36291;SDS011;22327;51.208;6.418;2023-08-08T04:35:08;8.75;;;3.20;;
36291;SDS011;22327;51.208;6.418;2023-08-08T04:38:08;9.88;;;3.25;;
36291;SDS011;22327;51.208;6.418;2023-08-08T04:41:09;7.18;;;3.30;;
36291;SDS011;22327;51.208;6.418;2023-08-08T04:44:10;6.65;;;3.05;;
36291;SDS011;22327;51.208;6.418;2023-08-08T04:47:10;7.53;;;3.47;;
36291;SDS011;22327;51.208;6.418;2023-08-08T04:50:10;8.35;;;3.60;;
36291;SDS011;22327;51.208;6.418;2023-08-08T04:53:11;8.43;;;3.40;;
36291;SDS011;22327;51.208;6.418;2023-08-08T04:56:11;7.63;;;3.13;;
36291;SDS011;22327;51.208;6.418;2023-08-08T04:59:12;8.45;;;3.20;;
36291;SDS011;22327;51.208;6.418;2023-08-08T05:02:13;5.95;;;3.00;;
36291;SDS011;22327;51.208;6.418;2023-08-08T05:05:13;5.50;;;3.22;;
36291;SDS011;22327;51.208;6.418;2023-08-08T05:08:14;10.82;;;3.00;;
36291;SDS011;22327;51.208;6.418;2023-08-08T05:11:14;7.55;;;3.17;;
36291;SDS011;22327;51.208;6.418;2023-08-08T05:14:15;4.50;;;2.83;;
36291;SDS011;22327;51.208;6.418;2023-08-08T05:17:15;9.05;;;3.17;;
36291;SDS011;22327;51.208;6.418;2023-08-08T05:20:16;7.18;;;3.72;;
36291;SDS011;22327;51.208;6.418;2023-08-08T05:23:17;7.40;;;3.28;;
36291;SDS011;22327;51.208;6.418;2023-08-08T05:26:17;7.15;;;3.28;;
36291;SDS011;22327;51.208;6.418;2023-08-08T05:29:18;8.50;;;3.15;;
36291;SDS011;22327;51.208;6.418;2023-08-08T05:32:18;5.72;;;3.08;;
36291;SDS011;22327;51.208;6.418;2023-08-08T05:35:19;9.45;;;3.60;;
36291;SDS011;22327;51.208;6.418;2023-08-08T05:38:19;7.15;;;2.85;;
36291;SDS011;22327;51.208;6.418;2023-08-08T05:41:20;5.03;;;2.60;;
36291;SDS011;22327;51.208;6.418;2023-08-08T05:44:20;7.57;;;3.45;;
36291;SDS011;22327;51.208;6.418;2023-08-08T05:47:21;5.15;;;3.13;;
36291;SDS011;22327;51.208;6.418;2023-08-08T05:50:21;9.52;;;2.88;;
36291;SDS011;22327;51.208;6.418;2023-08-08T05:53:22;6.25;;;2.72;;
36291;SDS011;22327;51.208;6.418;2023-08-08T05:56:22;6.60;;;3.00;;
36291;SDS011;22327;51.208;6.418;2023-08-08T05:59:23;6.68;;;3.30;;
36291;SDS011;22327;51.208;6.418;2023-08-08T06:02:23;9.02;;;3.15;;
36291;SDS011;22327;51.208;6.418;2023-08-08T06:05:24;7.63;;;2.55;;
36291;SDS011;22327;51.208;6.418;2023-08-08T06:08:25;6.18;;;2.75;;
36291;SDS011;22327;51.208;6.418;2023-08-08T06:11:25;5.20;;;2.88;;
36291;SDS011;22327;51.208;6.418;2023-08-08T06:14:26;4.43;;;3.00;;
36291;SDS011;22327;51.208;6.418;2023-08-08T06:17:26;8.40;;;2.95;;
36291;SDS011;22327;51.208;6.418;2023-08-08T06:20:27;10.90;;;3.00;;
36291;SDS011;22327;51.208;6.418;2023-08-08T06:23:28;7.20;;;3.50;;
36291;SDS011;22327;51.208;6.418;2023-08-08T06:26:29;8.60;;;3.15;;
36291;SDS011;22327;51.208;6.418;2023-08-08T06:29:29;5.72;;;2.90;;
36291;SDS011;22327;51.208;6.418;2023-08-08T06:32:30;7.75;;;2.90;;
36291;SDS011;22327;51.208;6.418;2023-08-08T06:35:31;7.07;;;2.33;;
36291;SDS011;22327;51.208;6.418;2023-08-08T06:38:31;6.38;;;2.65;;
36291;SDS011;22327;51.208;6.418;2023-08-08T06:41:33;5.30;;;2.25;;
36291;SDS011;22327;51.208;6.418;2023-08-08T06:44:40;6.80;;;2.90;;
36291;SDS011;22327;51.208;6.418;2023-08-08T06:47:41;8.23;;;2.75;;
36291;SDS011;22327;51.208;6.418;2023-08-08T06:50:42;5.43;;;3.15;;
36291;SDS011;22327;51.208;6.418;2023-08-08T06:53:43;6.53;;;2.83;;
36291;SDS011;22327;51.208;6.418;2023-08-08T06:56:43;5.80;;;2.70;;
36291;SDS011;22327;51.208;6.418;2023-08-08T06:59:44;5.15;;;1.90;;
36291;SDS011;22327;51.208;6.418;2023-08-08T07:02:46;4.70;;;2.70;;
36291;SDS011;22327;51.208;6.418;2023-08-08T07:05:47;5.22;;;2.25;;
36291;SDS011;22327;51.208;6.418;2023-08-08T07:08:51;3.70;;;1.73;;
36291;SDS011;22327;51.208;6.418;2023-08-08T07:11:53;7.00;;;1.90;;
36291;SDS011;22327;51.208;6.418;2023-08-08T07:14:53;4.78;;;1.80;;
36291;SDS011;22327;51.208;6.418;2023-08-08T07:17:54;6.97;;;2.55;;
36291;SDS011;22327;51.208;6.418;2023-08-08T07:20:54;3.75;;;2.10;;
36291;SDS011;22327;51.208;6.418;2023-08-08T07:23:56;4.88;;;1.85;;
36291;SDS011;22327;51.208;6.418;2023-08-08T07:26:58;6.68;;;2.00;;
36291;SDS011;22327;51.208;6.418;2023-08-08T07:29:59;4.85;;;1.85;;
36291;SDS011;22327;51.208;6.418;2023-08-08T07:33:01;6.32;;;1.90;;
36291;SDS011;22327;51.208;6.418;2023-08-08T07:36:02;5.25;;;1.90;;
36291;SDS011;22327;51.208;6.418;2023-08-08T07:39:02;7.93;;;2.50;;
36291;SDS011;22327;51.208;6.418;2023-08-08T07:42:03;4.88;;;2.42;;
36291;SDS011;22327;51.208;6.418;2023-08-08T07:45:04;6.70;;;2.10;;
36291;SDS011;22327;51.208;6.418;2023-08-08T07:48:05;4.57;;;2.25;;
36291;SDS011;22327;51.208;6.418;2023-08-08T07:51:06;3.88;;;1.95;;
36291;SDS011;22327;51.208;6.418;2023-08-08T07:54:06;7.30;;;2.08;;
36291;SDS011;22327;51.208;6.418;2023-08-08T07:57:08;6.07;;;2.38;;
36291;SDS011;22327;51.208;6.418;2023-08-08T08:00:09;6.50;;;2.47;;
36291;SDS011;22327;51.208;6.418;2023-08-08T08:06:13;7.32;;;2.53;;
36291;SDS011;22327;51.208;6.418;2023-08-08T08:09:14;5.63;;;1.83;;
36291;SDS011;22327;51.208;6.418;2023-08-08T08:12:14;3.55;;;1.75;;
36291;SDS011;22327;51.208;6.418;2023-08-08T08:15:15;3.72;;;1.80;;
36291;SDS011;22327;51.208;6.418;2023-08-08T08:18:15;5.22;;;2.20;;
36291;SDS011;22327;51.208;6.418;2023-08-08T08:21:17;8.70;;;3.20;;
36291;SDS011;22327;51.208;6.418;2023-08-08T08:24:17;5.03;;;1.85;;
36291;SDS011;22327;51.208;6.418;2023-08-08T08:27:18;4.93;;;2.28;;
36291;SDS011;22327;51.208;6.418;2023-08-08T08:30:18;5.53;;;2.40;;
36291;SDS011;22327;51.208;6.418;2023-08-08T08:33:19;9.07;;;2.58;;
36291;SDS011;22327;51.208;6.418;2023-08-08T08:36:20;7.65;;;2.85;;
36291;SDS011;22327;51.208;6.418;2023-08-08T08:39:21;3.92;;;2.03;;
36291;SDS011;22327;51.208;6.418;2023-08-08T08:42:22;7.00;;;2.13;;
36291;SDS011;22327;51.208;6.418;2023-08-08T08:45:24;8.05;;;2.20;;
36291;SDS011;22327;51.208;6.418;2023-08-08T08:48:25;5.32;;;2.28;;
36291;SDS011;22327;51.208;6.418;2023-08-08T08:51:26;4.85;;;1.85;;
36291;SDS011;22327;51.208;6.418;2023-08-08T08:54:28;5.82;;;2.15;;
36291;SDS011;22327;51.208;6.418;2023-08-08T08:57:29;5.32;;;2.10;;
36291;SDS011;22327;51.208;6.418;2023-08-08T09:00:30;5.90;;;3.05;;
36291;SDS011;22327;51.208;6.418;2023-08-08T09:03:31;7.22;;;2.50;;
36291;SDS011;22327;51.208;6.418;2023-08-08T09:06:32;5.72;;;1.60;;
36291;SDS011;22327;51.208;6.418;2023-08-08T09:09:32;3.35;;;1.60;;
36291;SDS011;22327;51.208;6.418;2023-08-08T09:12:33;5.78;;;1.77;;
36291;SDS011;22327;51.208;6.418;2023-08-08T09:15:34;5.40;;;1.80;;
36291;SDS011;22327;51.208;6.418;2023-08-08T09:18:35;5.63;;;2.17;;
36291;SDS011;22327;51.208;6.418;2023-08-08T09:24:39;6.50;;;2.13;;
36291;SDS011;22327;51.208;6.418;2023-08-08T09:27:41;4.75;;;1.85;;
36291;SDS011;22327;51.208;6.418;2023-08-08T09:30:43;4.68;;;1.80;;
36291;SDS011;22327;51.208;6.418;2023-08-08T09:33:44;6.82;;;2.47;;
36291;SDS011;22327;51.208;6.418;2023-08-08T09:36:45;6.55;;;2.10;;
36291;SDS011;22327;51.208;6.418;2023-08-08T09:39:45;6.55;;;1.83;;
36291;SDS011;22327;51.208;6.418;2023-08-08T09:42:46;7.93;;;1.75;;
36291;SDS011;22327;51.208;6.418;2023-08-08T09:45:46;6.07;;;1.70;;
36291;SDS011;22327;51.208;6.418;2023-08-08T09:48:48;7.40;;;1.73;;
36291;SDS011;22327;51.208;6.418;2023-08-08T09:51:49;3.60;;;1.70;;
36291;SDS011;22327;51.208;6.418;2023-08-08T09:54:50;2.70;;;1.38;;
36291;SDS011;22327;51.208;6.418;2023-08-08T09:57:51;6.55;;;1.92;;
36291;SDS011;22327;51.208;6.418;2023-08-08T10:00:53;4.80;;;1.52;;
36291;SDS011;22327;51.208;6.418;2023-08-08T10:03:53;7.10;;;1.88;;
36291;SDS011;22327;51.208;6.418;2023-08-08T10:06:55;4.78;;;1.70;;
36291;SDS011;22327;51.208;6.418;2023-08-08T10:09:56;5.72;;;1.70;;
36291;SDS011;22327;51.208;6.418;2023-08-08T10:12:58;7.53;;;1.77;;
36291;SDS011;22327;51.208;6.418;2023-08-08T10:16:03;6.57;;;2.65;;
36291;SDS011;22327;51.208;6.418;2023-08-08T10:19:07;3.63;;;1.73;;
36291;SDS011;22327;51.208;6.418;2023-08-08T10:22:08;3.05;;;1.73;;
36291;SDS011;22327;51.208;6.418;2023-08-08T10:25:16;4.75;;;2.28;;
36291;SDS011;22327;51.208;6.418;2023-08-08T10:28:19;4.22;;;2.03;;
36291;SDS011;22327;51.208;6.418;2023-08-08T10:31:21;6.53;;;2.42;;
36291;SDS011;22327;51.208;6.418;2023-08-08T10:34:26;5.18;;;2.42;;
36291;SDS011;22327;51.208;6.418;2023-08-08T10:40:42;6.45;;;2.45;;
36291;SDS011;22327;51.208;6.418;2023-08-08T10:43:50;9.70;;;2.30;;
36291;SDS011;22327;51.208;6.418;2023-08-08T10:46:56;3.40;;;2.03;;
36291;SDS011;22327;51.208;6.418;2023-08-08T10:49:58;6.70;;;2.40;;
36291;SDS011;22327;51.208;6.418;2023-08-08T10:53:11;3.80;;;1.98;;
36291;SDS011;22327;51.208;6.418;2023-08-08T10:56:12;6.03;;;1.98;;
36291;SDS011;22327;51.208;6.418;2023-08-08T10:59:17;4.80;;;2.08;;
36291;SDS011;22327;51.208;6.418;2023-08-08T11:02:22;4.43;;;1.98;;
36291;SDS011;22327;51.208;6.418;2023-08-08T11:05:23;5.55;;;2.03;;
36291;SDS011;22327;51.208;6.418;2023-08-08T11:08:26;4.82;;;1.90;;
36291;SDS011;22327;51.208;6.418;2023-08-08T11:11:27;4.60;;;2.22;;
36291;SDS011;22327;51.208;6.418;2023-08-08T11:14:28;4.03;;;1.88;;
36291;SDS011;22327;51.208;6.418;2023-08-08T11:17:29;3.35;;;1.73;;
36291;SDS011;22327;51.208;6.418;2023-08-08T11:20:30;5.38;;;2.22;;
36291;SDS011;22327;51.208;6.418;2023-08-08T11:23:33;4.72;;;2.00;;
36291;SDS011;22327;51.208;6.418;2023-08-08T11:26:38;4.30;;;2.38;;
36291;SDS011;22327;51.208;6.418;2023-08-08T11:29:40;3.85;;;2.03;;
36291;SDS011;22327;51.208;6.418;2023-08-08T11:32:40;4.05;;;1.55;;
36291;SDS011;22327;51.208;6.418;2023-08-08T11:35:45;2.65;;;1.70;;
36291;SDS011;22327;51.208;6.418;2023-08-08T11:38:49;3.45;;;1.98;;
36291;SDS011;22327;51.208;6.418;2023-08-08T11:41:50;2.92;;;1.52;;
36291;SDS011;22327;51.208;6.418;2023-08-08T11:44:51;3.38;;;2.17;;
36291;SDS011;22327;51.208;6.418;2023-08-08T11:47:53;3.88;;;2.20;;
36291;SDS011;22327;51.208;6.418;2023-08-08T11:50:54;4.10;;;2.33;;
36291;SDS011;22327;51.208;6.418;2023-08-08T11:53:55;7.32;;;2.40;;
36291;SDS011;22327;51.208;6.418;2023-08-08T11:57:00;4.55;;;2.05;;
36291;SDS011;22327;51.208;6.418;2023-08-08T12:00:02;7.32;;;1.95;;
36291;SDS011;22327;51.208;6.418;2023-08-08T12:03:07;2.92;;;1.70;;
36291;SDS011;22327;51.208;6.418;2023-08-08T12:06:13;4.57;;;2.03;;
36291;SDS011;22327;51.208;6.418;2023-08-08T12:09:14;6.53;;;2.10;;
36291;SDS011;22327;51.208;6.418;2023-08-08T12:12:14;5.03;;;1.70;;
36291;SDS011;22327;51.208;6.418;2023-08-08T12:15:15;3.70;;;1.90;;
36291;SDS011;22327;51.208;6.418;2023-08-08T12:18:16;3.40;;;1.85;;
36291;SDS011;22327;51.208;6.418;2023-08-08T12:21:20;3.70;;;1.80;;
36291;SDS011;22327;51.208;6.418;2023-08-08T12:24:25;3.63;;;1.35;;
36291;SDS011;22327;51.208;6.418;2023-08-08T12:27:26;2.70;;;1.95;;
36291;SDS011;22327;51.208;6.418;2023-08-08T12:30:26;5.15;;;2.15;;
36291;SDS011;22327;51.208;6.418;2023-08-08T12:33:27;3.75;;;1.80;;
36291;SDS011;22327;51.208;6.418;2023-08-08T12:36:28;4.05;;;1.75;;
36291;SDS011;22327;51.208;6.418;2023-08-08T12:39:29;2.83;;;1.75;;
36291;SDS011;22327;51.208;6.418;2023-08-08T12:42:29;2.85;;;1.75;;
36291;SDS011;22327;51.208;6.418;2023-08-08T12:45:30;4.78;;;1.77;;
36291;SDS011;22327;51.208;6.418;2023-08-08T12:48:30;4.22;;;2.13;;
36291;SDS011;22327;51.208;6.418;2023-08-08T12:51:31;4.78;;;1.60;;
36291;SDS011;22327;51.208;6.418;2023-08-08T12:54:31;7.15;;;2.05;;
36291;SDS011;22327;51.208;6.418;2023-08-08T12:57:32;4.03;;;2.13;;
36291;SDS011;22327;51.208;6.418;2023-08-08T13:00:33;4.53;;;2.38;;
36291;SDS011;22327;51.208;6.418;2023-08-08T13:03:33;4.10;;;2.10;;
36291;SDS011;22327;51.208;6.418;2023-08-08T13:06:34;3.13;;;2.05;;
36291;SDS011;22327;51.208;6.418;2023-08-08T13:09:34;4.07;;;1.60;;
36291;SDS011;22327;51.208;6.418;2023-08-08T13:12:35;5.00;;;1.98;;
36291;SDS011;22327;51.208;6.418;2023-08-08T13:15:35;3.90;;;2.20;;
36291;SDS011;22327;51.208;6.418;2023-08-08T13:18:36;2.97;;;2.08;;
36291;SDS011;22327;51.208;6.418;2023-08-08T13:21:37;4.22;;;2.17;;
36291;SDS011;22327;51.208;6.418;2023-08-08T13:24:37;4.82;;;1.77;;
36291;SDS011;22327;51.208;6.418;2023-08-08T13:27:38;8.80;;;2.80;;
36291;SDS011;22327;51.208;6.418;2023-08-08T13:30:39;4.07;;;1.88;;
36291;SDS011;22327;51.208;6.418;2023-08-08T13:33:41;2.63;;;1.75;;
36291;SDS011;22327;51.208;6.418;2023-08-08T13:36:41;2.58;;;1.83;;
36291;SDS011;22327;51.208;6.418;2023-08-08T13:39:42;3.63;;;1.88;;
36291;SDS011;22327;51.208;6.418;2023-08-08T13:42:42;3.55;;;1.83;;
36291;SDS011;22327;51.208;6.418;2023-08-08T13:45:47;5.38;;;1.83;;
36291;SDS011;22327;51.208;6.418;2023-08-08T13:48:48;1.83;;;1.35;;
36291;SDS011;22327;51.208;6.418;2023-08-08T13:51:48;4.45;;;2.17;;
36291;SDS011;22327;51.208;6.418;2023-08-08T13:54:49;5.13;;;1.52;;
36291;SDS011;22327;51.208;6.418;2023-08-08T13:57:49;3.60;;;1.70;;
36291;SDS011;22327;51.208;6.418;2023-08-08T14:00:50;3.25;;;1.25;;
36291;SDS011;22327;51.208;6.418;2023-08-08T14:03:51;3.10;;;1.30;;
36291;SDS011;22327;51.208;6.418;2023-08-08T14:06:52;2.75;;;1.10;;
36291;SDS011;22327;51.208;6.418;2023-08-08T14:09:52;2.90;;;1.33;;
36291;SDS011;22327;51.208;6.418;2023-08-08T14:12:53;2.78;;;1.35;;
36291;SDS011;22327;51.208;6.418;2023-08-08T14:15:53;1.77;;;1.35;;
36291;SDS011;22327;51.208;6.418;2023-08-08T14:18:54;2.63;;;1.40;;
36291;SDS011;22327;51.208;6.418;2023-08-08T14:21:54;2.97;;;1.10;;
36291;SDS011;22327;51.208;6.418;2023-08-08T14:24:55;3.05;;;1.25;;
36291;SDS011;22327;51.208;6.418;2023-08-08T14:27:56;1.23;;;1.10;;
36291;SDS011;22327;51.208;6.418;2023-08-08T14:30:56;3.22;;;1.27;;
36291;SDS011;22327;51.208;6.418;2023-08-08T14:33:57;1.83;;;1.08;;
36291;SDS011;22327;51.208;6.418;2023-08-08T14:36:58;4.40;;;1.30;;
36291;SDS011;22327;51.208;6.418;2023-08-08T14:39:59;3.80;;;1.38;;
36291;SDS011;22327;51.208;6.418;2023-08-08T14:42:59;1.75;;;0.90;;
36291;SDS011;22327;51.208;6.418;2023-08-08T14:46:01;2.28;;;1.25;;
36291;SDS011;22327;51.208;6.418;2023-08-08T14:49:01;6.35;;;3.95;;
36291;SDS011;22327;51.208;6.418;2023-08-08T14:52:04;3.83;;;1.17;;
36291;SDS011;22327;51.208;6.418;2023-08-08T14:55:04;2.28;;;1.33;;
36291;SDS011;22327;51.208;6.418;2023-08-08T14:58:05;2.97;;;1.15;;
36291;SDS011;22327;51.208;6.418;2023-08-08T15:01:06;1.50;;;1.08;;
36291;SDS011;22327;51.208;6.418;2023-08-08T15:04:06;1.70;;;1.02;;
36291;SDS011;22327;51.208;6.418;2023-08-08T15:07:07;3.60;;;1.70;;
36291;SDS011;22327;51.208;6.418;2023-08-08T15:10:07;1.95;;;0.98;;
36291;SDS011;22327;51.208;6.418;2023-08-08T15:13:08;1.73;;;1.00;;
36291;SDS011;22327;51.208;6.418;2023-08-08T15:16:09;1.10;;;1.00;;
36291;SDS011;22327;51.208;6.418;2023-08-08T15:19:09;3.38;;;1.35;;
36291;SDS011;22327;51.208;6.418;2023-08-08T15:22:10;3.08;;;1.92;;
36291;SDS011;22327;51.208;6.418;2023-08-08T15:25:11;2.00;;;1.10;;
36291;SDS011;22327;51.208;6.418;2023-08-08T15:28:11;3.72;;;1.30;;
36291;SDS011;22327;51.208;6.418;2023-08-08T15:31:12;2.83;;;1.33;;
36291;SDS011;22327;51.208;6.418;2023-08-08T15:34:12;0.93;;;0.82;;
36291;SDS011;22327;51.208;6.418;2023-08-08T15:37:13;6.10;;;2.30;;
36291;SDS011;22327;51.208;6.418;2023-08-08T15:40:13;8.05;;;4.30;;
36291;SDS011;22327;51.208;6.418;2023-08-08T15:43:14;1.83;;;1.45;;
36291;SDS011;22327;51.208;6.418;2023-08-08T15:46:14;2.17;;;1.60;;
36291;SDS011;22327;51.208;6.418;2023-08-08T15:49:15;2.88;;;2.10;;
36291;SDS011;22327;51.208;6.418;2023-08-08T15:52:16;9.10;;;6.68;;
36291;SDS011;22327;51.208;6.418;2023-08-08T15:55:17;4.60;;;3.53;;
36291;SDS011;22327;51.208;6.418;2023-08-08T15:58:17;11.77;;;7.88;;
36291;SDS011;22327;51.208;6.418;2023-08-08T16:01:18;9.45;;;7.05;;
36291;SDS011;22327;51.208;6.418;2023-08-08T16:04:18;3.28;;;2.10;;
36291;SDS011;22327;51.208;6.418;2023-08-08T16:07:19;2.80;;;2.60;;
36291;SDS011;22327;51.208;6.418;2023-08-08T16:10:20;2.83;;;1.60;;
36291;SDS011;22327;51.208;6.418;2023-08-08T16:13:22;2.67;;;1.50;;
36291;SDS011;22327;51.208;6.418;2023-08-08T16:16:22;2.53;;;1.52;;
36291;SDS011;22327;51.208;6.418;2023-08-08T16:19:23;1.85;;;1.00;;
36291;SDS011;22327;51.208;6.418;2023-08-08T16:22:23;1.83;;;1.15;;
36291;SDS011;22327;51.208;6.418;2023-08-08T16:25:24;1.20;;;0.88;;
36291;SDS011;22327;51.208;6.418;2023-08-08T16:28:25;1.38;;;1.00;;
36291;SDS011;22327;51.208;6.418;2023-08-08T16:31:26;3.35;;;1.30;;
36291;SDS011;22327;51.208;6.418;2023-08-08T16:34:26;1.45;;;1.00;;
36291;SDS011;22327;51.208;6.418;2023-08-08T16:37:28;1.52;;;1.30;;
36291;SDS011;22327;51.208;6.418;2023-08-08T16:40:28;2.00;;;0.95;;
36291;SDS011;22327;51.208;6.418;2023-08-08T16:43:29;3.05;;;1.20;;
36291;SDS011;22327;51.208;6.418;2023-08-08T16:46:31;1.60;;;0.90;;
36291;SDS011;22327;51.208;6.418;2023-08-08T16:49:35;2.22;;;1.20;;
36291;SDS011;22327;51.208;6.418;2023-08-08T16:52:36;3.67;;;1.35;;
36291;SDS011;22327;51.208;6.418;2023-08-08T16:55:36;1.42;;;0.90;;
36291;SDS011;22327;51.208;6.418;2023-08-08T16:58:37;1.33;;;0.98;;
36291;SDS011;22327;51.208;6.418;2023-08-08T17:01:39;1.90;;;1.20;;
36291;SDS011;22327;51.208;6.418;2023-08-08T17:04:41;5.15;;;1.15;;
36291;SDS011;22327;51.208;6.418;2023-08-08T17:07:41;1.83;;;0.90;;
36291;SDS011;22327;51.208;6.418;2023-08-08T17:10:42;2.35;;;1.00;;
36291;SDS011;22327;51.208;6.418;2023-08-08T17:13:42;1.30;;;1.20;;
36291;SDS011;22327;51.208;6.418;2023-08-08T17:16:43;1.15;;;0.80;;
36291;SDS011;22327;51.208;6.418;2023-08-08T17:19:45;3.65;;;0.80;;
36291;SDS011;22327;51.208;6.418;2023-08-08T17:22:45;2.03;;;0.90;;
36291;SDS011;22327;51.208;6.418;2023-08-08T17:25:46;2.55;;;0.80;;
36291;SDS011;22327;51.208;6.418;2023-08-08T17:28:46;2.85;;;1.10;;
36291;SDS011;22327;51.208;6.418;2023-08-08T17:31:49;1.00;;;0.68;;
36291;SDS011;22327;51.208;6.418;2023-08-08T17:34:49;1.98;;;0.68;;
36291;SDS011;22327;51.208;6.418;2023-08-08T17:37:50;1.38;;;0.80;;
36291;SDS011;22327;51.208;6.418;2023-08-08T17:40:50;2.95;;;1.05;;
36291;SDS011;22327;51.208;6.418;2023-08-08T17:43:51;1.33;;;1.10;;
36291;SDS011;22327;51.208;6.418;2023-08-08T17:46:52;1.65;;;0.70;;
36291;SDS011;22327;51.208;6.418;2023-08-08T17:49:53;2.08;;;1.00;;
36291;SDS011;22327;51.208;6.418;2023-08-08T17:52:53;1.20;;;1.02;;
36291;SDS011;22327;51.208;6.418;2023-08-08T17:55:54;2.22;;;1.20;;
36291;SDS011;22327;51.208;6.418;2023-08-08T17:58:54;2.00;;;1.05;;
36291;SDS011;22327;51.208;6.418;2023-08-08T18:01:55;3.15;;;1.00;;
36291;SDS011;22327;51.208;6.418;2023-08-08T18:04:56;0.80;;;0.77;;
36291;SDS011;22327;51.208;6.418;2023-08-08T18:07:56;1.85;;;1.00;;
36291;SDS011;22327;51.208;6.418;2023-08-08T18:10:57;3.05;;;1.17;;
36291;SDS011;22327;51.208;6.418;2023-08-08T18:13:57;1.08;;;0.70;;
36291;SDS011;22327;51.208;6.418;2023-08-08T18:16:58;1.50;;;1.25;;
36291;SDS011;22327;51.208;6.418;2023-08-08T18:19:59;2.55;;;1.85;;
36291;SDS011;22327;51.208;6.418;2023-08-08T18:22:59;2.65;;;1.60;;
36291;SDS011;22327;51.208;6.418;2023-08-08T18:26:00;2.05;;;1.25;;